sensor_id;sensor_type;location;lat;lon;timestamp;pressure;altitude;pressure_sealevel;temperature
78369;BMP280;71113;43.092;-89.268;2024-03-07T00:00:14;98457.41;;;18.31
78369;BMP280;71113;43.092;-89.268;2024-03-07T00:02:48;98455.56;;;18.31
78369;BMP280;71113;43.092;-89.268;2024-03-07T00:05:24;98464.56;;;18.39
78369;BMP280;71113;43.092;-89.268;2024-03-07T00:07:50;98468.34;;;18.46
78369;BMP280;71113;43.092;-89.268;2024-03-07T00:10:19;98474.44;;;18.55
78369;BMP280;71113;43.092;-89.268;2024-03-07T00:12:48;98477.50;;;18.49
78369;BMP280;71113;43.092;-89.268;2024-03-07T00:15:14;98475.78;;;18.44
78369;BMP280;71113;43.092;-89.268;2024-03-07T00:17:41;98479.72;;;18.47
78369;BMP280;71113;43.092;-89.268;2024-03-07T00:20:07;98479.72;;;18.55
78369;BMP280;71113;43.092;-89.268;2024-03-07T00:22:51;98482.03;;;18.66
78369;BMP280;71113;43.092;-89.268;2024-03-07T00:25:17;98479.56;;;18.69
78369;BMP280;71113;43.092;-89.268;2024-03-07T00:27:45;98485.94;;;18.68
78369;BMP280;71113;43.092;-89.268;2024-03-07T00:30:11;98488.88;;;18.67
78369;BMP280;71113;43.092;-89.268;2024-03-07T00:32:44;98481.72;;;18.67
78369;BMP280;71113;43.092;-89.268;2024-03-07T00:35:10;98488.56;;;18.68
78369;BMP280;71113;43.092;-89.268;2024-03-07T00:37:36;98492.78;;;18.69
78369;BMP280;71113;43.092;-89.268;2024-03-07T00:40:03;98495.41;;;18.69
78369;BMP280;71113;43.092;-89.268;2024-03-07T00:42:29;98494.78;;;18.72
78369;BMP280;71113;43.092;-89.268;2024-03-07T00:44:56;98494.50;;;18.74
78369;BMP280;71113;43.092;-89.268;2024-03-07T00:47:21;98505.50;;;18.76
78369;BMP280;71113;43.092;-89.268;2024-03-07T00:49:48;98502.56;;;18.77
78369;BMP280;71113;43.092;-89.268;2024-03-07T00:52:14;98504.16;;;18.78
78369;BMP280;71113;43.092;-89.268;2024-03-07T00:54:41;98513.28;;;18.81
78369;BMP280;71113;43.092;-89.268;2024-03-07T00:57:07;98514.56;;;18.83
78369;BMP280;71113;43.092;-89.268;2024-03-07T00:59:34;98511.56;;;18.85
78369;BMP280;71113;43.092;-89.268;2024-03-07T01:02:00;98521.56;;;18.88
78369;BMP280;71113;43.092;-89.268;2024-03-07T01:04:26;98520.94;;;18.91
78369;BMP280;71113;43.092;-89.268;2024-03-07T01:06:59;98531.66;;;18.95
78369;BMP280;71113;43.092;-89.268;2024-03-07T01:09:26;98523.13;;;18.98
78369;BMP280;71113;43.092;-89.268;2024-03-07T01:11:55;98526.84;;;18.97
78369;BMP280;71113;43.092;-89.268;2024-03-07T01:14:22;98527.00;;;19.00
78369;BMP280;71113;43.092;-89.268;2024-03-07T01:16:48;98534.28;;;19.03
78369;BMP280;71113;43.092;-89.268;2024-03-07T01:19:15;98535.06;;;19.04
78369;BMP280;71113;43.092;-89.268;2024-03-07T01:21:42;98533.69;;;19.06
78369;BMP280;71113;43.092;-89.268;2024-03-07T01:24:08;98534.47;;;19.07
78369;BMP280;71113;43.092;-89.268;2024-03-07T01:26:34;98534.13;;;19.08
78369;BMP280;71113;43.092;-89.268;2024-03-07T01:29:01;98536.00;;;19.08
78369;BMP280;71113;43.092;-89.268;2024-03-07T01:31:27;98543.66;;;19.09
78369;BMP280;71113;43.092;-89.268;2024-03-07T01:33:54;98545.22;;;19.10
78369;BMP280;71113;43.092;-89.268;2024-03-07T01:36:20;98538.06;;;19.11
78369;BMP280;71113;43.092;-89.268;2024-03-07T01:38:46;98539.28;;;19.13
78369;BMP280;71113;43.092;-89.268;2024-03-07T01:41:13;98542.41;;;19.15
78369;BMP280;71113;43.092;-89.268;2024-03-07T01:43:40;98536.06;;;19.16
78369;BMP280;71113;43.092;-89.268;2024-03-07T01:46:07;98534.94;;;19.17
78369;BMP280;71113;43.092;-89.268;2024-03-07T01:48:34;98537.25;;;19.19
78369;BMP280;71113;43.092;-89.268;2024-03-07T01:51:00;98538.84;;;19.20
78369;BMP280;71113;43.092;-89.268;2024-03-07T01:53:30;98538.50;;;19.22
78369;BMP280;71113;43.092;-89.268;2024-03-07T01:55:57;98549.09;;;19.22
78369;BMP280;71113;43.092;-89.268;2024-03-07T01:58:25;98550.34;;;19.24
78369;BMP280;71113;43.092;-89.268;2024-03-07T02:00:51;98557.94;;;19.26
78369;BMP280;71113;43.092;-89.268;2024-03-07T02:03:18;98554.22;;;19.27
78369;BMP280;71113;43.092;-89.268;2024-03-07T02:05:44;98561.06;;;19.28
78369;BMP280;71113;43.092;-89.268;2024-03-07T02:08:11;98560.28;;;19.27
78369;BMP280;71113;43.092;-89.268;2024-03-07T02:10:37;98567.63;;;19.30
78369;BMP280;71113;43.092;-89.268;2024-03-07T02:13:04;98568.84;;;19.33
78369;BMP280;71113;43.092;-89.268;2024-03-07T02:15:30;98569.63;;;19.33
78369;BMP280;71113;43.092;-89.268;2024-03-07T02:17:56;98565.56;;;19.27
78369;BMP280;71113;43.092;-89.268;2024-03-07T02:20:23;98567.00;;;19.25
78369;BMP280;71113;43.092;-89.268;2024-03-07T02:22:49;98567.59;;;19.22
78369;BMP280;71113;43.092;-89.268;2024-03-07T02:25:17;98567.78;;;19.16
78369;BMP280;71113;43.092;-89.268;2024-03-07T02:27:43;98572.91;;;19.13
78369;BMP280;71113;43.092;-89.268;2024-03-07T02:30:11;98569.63;;;19.07
78369;BMP280;71113;43.092;-89.268;2024-03-07T02:32:38;98569.78;;;19.02
78369;BMP280;71113;43.092;-89.268;2024-03-07T02:35:04;98569.44;;;18.95
78369;BMP280;71113;43.092;-89.268;2024-03-07T02:37:31;98570.53;;;18.94
78369;BMP280;71113;43.092;-89.268;2024-03-07T02:39:57;98573.81;;;18.91
78369;BMP280;71113;43.092;-89.268;2024-03-07T02:42:24;98570.22;;;18.87
78369;BMP280;71113;43.092;-89.268;2024-03-07T02:44:50;98568.19;;;18.84
78369;BMP280;71113;43.092;-89.268;2024-03-07T02:47:18;98570.06;;;18.83
78369;BMP280;71113;43.092;-89.268;2024-03-07T02:49:44;98566.50;;;18.79
78369;BMP280;71113;43.092;-89.268;2024-03-07T02:52:11;98568.19;;;18.75
78369;BMP280;71113;43.092;-89.268;2024-03-07T02:54:37;98560.09;;;18.72
78369;BMP280;71113;43.092;-89.268;2024-03-07T02:57:03;98563.34;;;18.69
78369;BMP280;71113;43.092;-89.268;2024-03-07T02:59:29;98566.28;;;18.67
78369;BMP280;71113;43.092;-89.268;2024-03-07T03:01:55;98561.63;;;18.64
78369;BMP280;71113;43.092;-89.268;2024-03-07T03:04:21;98558.81;;;18.61
78369;BMP280;71113;43.092;-89.268;2024-03-07T03:06:48;98566.91;;;18.55
78369;BMP280;71113;43.092;-89.268;2024-03-07T03:09:14;98566.13;;;18.55
78369;BMP280;71113;43.092;-89.268;2024-03-07T03:11:44;98559.56;;;18.52
78369;BMP280;71113;43.092;-89.268;2024-03-07T03:14:11;98563.13;;;18.48
78369;BMP280;71113;43.092;-89.268;2024-03-07T03:16:42;98563.44;;;18.46
78369;BMP280;71113;43.092;-89.268;2024-03-07T03:19:10;98559.84;;;18.42
78369;BMP280;71113;43.092;-89.268;2024-03-07T03:21:36;98563.09;;;18.39
78369;BMP280;71113;43.092;-89.268;2024-03-07T03:24:03;98554.38;;;18.39
78369;BMP280;71113;43.092;-89.268;2024-03-07T03:26:29;98556.06;;;18.35
78369;BMP280;71113;43.092;-89.268;2024-03-07T03:28:57;98561.34;;;18.35
78369;BMP280;71113;43.092;-89.268;2024-03-07T03:31:24;98567.56;;;18.30
78369;BMP280;71113;43.092;-89.268;2024-03-07T03:33:50;98570.50;;;18.29
78369;BMP280;71113;43.092;-89.268;2024-03-07T03:36:16;98563.69;;;18.28
78369;BMP280;71113;43.092;-89.268;2024-03-07T03:38:42;98571.44;;;18.24
78369;BMP280;71113;43.092;-89.268;2024-03-07T03:41:14;98574.69;;;18.21
78369;BMP280;71113;43.092;-89.268;2024-03-07T03:43:40;98581.34;;;18.18
78369;BMP280;71113;43.092;-89.268;2024-03-07T03:46:10;98579.00;;;18.17
78369;BMP280;71113;43.092;-89.268;2024-03-07T03:48:39;98579.63;;;18.14
78369;BMP280;71113;43.092;-89.268;2024-03-07T03:51:08;98584.41;;;18.12
78369;BMP280;71113;43.092;-89.268;2024-03-07T03:53:37;98585.03;;;18.09
78369;BMP280;71113;43.092;-89.268;2024-03-07T03:56:03;98584.25;;;18.08
78369;BMP280;71113;43.092;-89.268;2024-03-07T03:58:32;98576.94;;;18.05
78369;BMP280;71113;43.092;-89.268;2024-03-07T04:00:59;98580.97;;;18.03
78369;BMP280;71113;43.092;-89.268;2024-03-07T04:03:25;98582.66;;;17.99
78369;BMP280;71113;43.092;-89.268;2024-03-07T04:05:52;98575.31;;;17.95
78369;BMP280;71113;43.092;-89.268;2024-03-07T04:08:18;98571.44;;;17.93
78369;BMP280;71113;43.092;-89.268;2024-03-07T04:10:45;98573.00;;;17.94
78369;BMP280;71113;43.092;-89.268;2024-03-07T04:13:11;98566.94;;;17.93
78369;BMP280;71113;43.092;-89.268;2024-03-07T04:15:39;98559.59;;;17.90
78369;BMP280;71113;43.092;-89.268;2024-03-07T04:18:05;98554.47;;;17.85
78369;BMP280;71113;43.092;-89.268;2024-03-07T04:20:31;98563.94;;;17.86
78369;BMP280;71113;43.092;-89.268;2024-03-07T04:22:57;98562.38;;;17.85
78369;BMP280;71113;43.092;-89.268;2024-03-07T04:25:23;98557.09;;;17.85
78369;BMP280;71113;43.092;-89.268;2024-03-07T04:27:50;98559.25;;;17.83
78369;BMP280;71113;43.092;-89.268;2024-03-07T04:30:16;98562.97;;;17.82
78369;BMP280;71113;43.092;-89.268;2024-03-07T04:32:43;98568.88;;;17.79
78369;BMP280;71113;43.092;-89.268;2024-03-07T04:35:09;98557.81;;;17.77
78369;BMP280;71113;43.092;-89.268;2024-03-07T04:37:38;98555.81;;;17.74
78369;BMP280;71113;43.092;-89.268;2024-03-07T04:40:08;98560.31;;;17.74
78369;BMP280;71113;43.092;-89.268;2024-03-07T04:42:48;98554.84;;;17.70
78369;BMP280;71113;43.092;-89.268;2024-03-07T04:45:15;98541.66;;;17.70
78369;BMP280;71113;43.092;-89.268;2024-03-07T04:47:42;98542.72;;;17.69
78369;BMP280;71113;43.092;-89.268;2024-03-07T04:50:10;98538.53;;;17.68
78369;BMP280;71113;43.092;-89.268;2024-03-07T04:52:39;98535.72;;;17.64
78369;BMP280;71113;43.092;-89.268;2024-03-07T04:55:06;98538.66;;;17.63
78369;BMP280;71113;43.092;-89.268;2024-03-07T04:57:37;98535.06;;;17.59
78369;BMP280;71113;43.092;-89.268;2024-03-07T05:00:09;98538.16;;;17.61
78369;BMP280;71113;43.092;-89.268;2024-03-07T05:02:46;98533.47;;;17.58
78369;BMP280;71113;43.092;-89.268;2024-03-07T05:05:12;98540.91;;;17.56
78369;BMP280;71113;43.092;-89.268;2024-03-07T05:07:39;98531.47;;;17.55
78369;BMP280;71113;43.092;-89.268;2024-03-07T05:10:07;98535.47;;;17.52
78369;BMP280;71113;43.092;-89.268;2024-03-07T05:12:33;98536.25;;;17.53
78369;BMP280;71113;43.092;-89.268;2024-03-07T05:14:59;98538.72;;;17.49
78369;BMP280;71113;43.092;-89.268;2024-03-07T05:17:25;98535.28;;;17.49
78369;BMP280;71113;43.092;-89.268;2024-03-07T05:19:51;98532.19;;;17.47
78369;BMP280;71113;43.092;-89.268;2024-03-07T05:22:17;98532.97;;;17.47
78369;BMP280;71113;43.092;-89.268;2024-03-07T05:24:45;98530.16;;;17.44
78369;BMP280;71113;43.092;-89.268;2024-03-07T05:27:11;98531.22;;;17.43
78369;BMP280;71113;43.092;-89.268;2024-03-07T05:29:38;98532.59;;;17.40
78369;BMP280;71113;43.092;-89.268;2024-03-07T05:32:24;98539.22;;;17.38
78369;BMP280;71113;43.092;-89.268;2024-03-07T05:34:52;98539.22;;;17.38
78369;BMP280;71113;43.092;-89.268;2024-03-07T05:37:21;98542.94;;;17.37
78369;BMP280;71113;43.092;-89.268;2024-03-07T05:39:48;98533.19;;;17.37
78369;BMP280;71113;43.092;-89.268;2024-03-07T05:42:14;98538.28;;;17.33
78369;BMP280;71113;43.092;-89.268;2024-03-07T05:44:42;98524.63;;;17.31
78369;BMP280;71113;43.092;-89.268;2024-03-07T05:47:09;98524.63;;;17.31
78369;BMP280;71113;43.092;-89.268;2024-03-07T05:49:36;98530.50;;;17.28
78369;BMP280;71113;43.092;-89.268;2024-03-07T05:52:06;98527.34;;;17.26
78369;BMP280;71113;43.092;-89.268;2024-03-07T05:54:32;98520.06;;;17.23
78369;BMP280;71113;43.092;-89.268;2024-03-07T05:56:58;98522.97;;;17.22
78369;BMP280;71113;43.092;-89.268;2024-03-07T05:59:25;98525.63;;;17.22
78369;BMP280;71113;43.092;-89.268;2024-03-07T06:01:54;98514.28;;;17.21
78369;BMP280;71113;43.092;-89.268;2024-03-07T06:04:21;98515.66;;;17.19
78369;BMP280;71113;43.092;-89.268;2024-03-07T06:06:47;98520.69;;;17.20
78369;BMP280;71113;43.092;-89.268;2024-03-07T06:09:14;98522.31;;;17.16
78369;BMP280;71113;43.092;-89.268;2024-03-07T06:11:40;98522.31;;;17.16
78369;BMP280;71113;43.092;-89.268;2024-03-07T06:14:10;98521.84;;;17.14
78369;BMP280;71113;43.092;-89.268;2024-03-07T06:16:40;98526.03;;;17.15
78369;BMP280;71113;43.092;-89.268;2024-03-07T06:19:07;98525.25;;;17.15
78369;BMP280;71113;43.092;-89.268;2024-03-07T06:21:34;98537.19;;;17.12
78369;BMP280;71113;43.092;-89.268;2024-03-07T06:24:00;98528.00;;;17.10
78369;BMP280;71113;43.092;-89.268;2024-03-07T06:26:31;98528.00;;;17.10
78369;BMP280;71113;43.092;-89.268;2024-03-07T06:29:11;98525.94;;;17.07
78369;BMP280;71113;43.092;-89.268;2024-03-07T06:31:37;98522.88;;;17.04
78369;BMP280;71113;43.092;-89.268;2024-03-07T06:34:03;98527.31;;;17.04
78369;BMP280;71113;43.092;-89.268;2024-03-07T06:36:29;98522.34;;;17.02
78369;BMP280;71113;43.092;-89.268;2024-03-07T06:38:55;98530.56;;;17.01
78369;BMP280;71113;43.092;-89.268;2024-03-07T06:41:21;98533.19;;;17.01
78369;BMP280;71113;43.092;-89.268;2024-03-07T06:43:48;98530.06;;;16.99
78369;BMP280;71113;43.092;-89.268;2024-03-07T06:46:18;98532.72;;;16.99
78369;BMP280;71113;43.092;-89.268;2024-03-07T06:48:45;98525.09;;;16.97
78369;BMP280;71113;43.092;-89.268;2024-03-07T06:51:11;98518.28;;;16.96
78369;BMP280;71113;43.092;-89.268;2024-03-07T06:53:38;98529.88;;;16.95
78369;BMP280;71113;43.092;-89.268;2024-03-07T06:56:05;98531.75;;;16.95
78369;BMP280;71113;43.092;-89.268;2024-03-07T06:58:32;98528.34;;;16.94
78369;BMP280;71113;43.092;-89.268;2024-03-07T07:00:59;98528.63;;;16.93
78369;BMP280;71113;43.092;-89.268;2024-03-07T07:03:26;98530.75;;;16.91
78369;BMP280;71113;43.092;-89.268;2024-03-07T07:05:54;98529.25;;;16.90
78369;BMP280;71113;43.092;-89.268;2024-03-07T07:08:20;98526.59;;;16.90
78369;BMP280;71113;43.092;-89.268;2024-03-07T07:10:47;98529.50;;;16.88
78369;BMP280;71113;43.092;-89.268;2024-03-07T07:13:13;98527.69;;;16.89
78369;BMP280;71113;43.092;-89.268;2024-03-07T07:15:39;98526.38;;;16.86
78369;BMP280;71113;43.092;-89.268;2024-03-07T07:18:06;98526.69;;;16.85
78369;BMP280;71113;43.092;-89.268;2024-03-07T07:20:33;98516.16;;;16.85
78369;BMP280;71113;43.092;-89.268;2024-03-07T07:23:02;98507.00;;;16.82
78369;BMP280;71113;43.092;-89.268;2024-03-07T07:25:29;98509.88;;;16.81
78369;BMP280;71113;43.092;-89.268;2024-03-07T07:27:55;98519.66;;;16.80
78369;BMP280;71113;43.092;-89.268;2024-03-07T07:30:22;98522.59;;;16.79
78369;BMP280;71113;43.092;-89.268;2024-03-07T07:32:50;98518.41;;;16.78
78369;BMP280;71113;43.092;-89.268;2024-03-07T07:35:16;98522.59;;;16.79
78369;BMP280;71113;43.092;-89.268;2024-03-07T07:37:46;98536.84;;;16.78
78369;BMP280;71113;43.092;-89.268;2024-03-07T07:40:16;98537.63;;;16.78
78369;BMP280;71113;43.092;-89.268;2024-03-07T07:42:47;98534.22;;;16.78
78369;BMP280;71113;43.092;-89.268;2024-03-07T07:45:14;98522.09;;;16.77
78369;BMP280;71113;43.092;-89.268;2024-03-07T07:47:42;98516.38;;;16.74
78369;BMP280;71113;43.092;-89.268;2024-03-07T07:50:18;98506.91;;;16.73
78369;BMP280;71113;43.092;-89.268;2024-03-07T07:55:16;98510.59;;;16.72
78369;BMP280;71113;43.092;-89.268;2024-03-07T07:57:44;98507.78;;;16.69
78369;BMP280;71113;43.092;-89.268;2024-03-07T08:00:12;98506.72;;;16.70
78369;BMP280;71113;43.092;-89.268;2024-03-07T08:02:57;98500.97;;;16.68
78369;BMP280;71113;43.092;-89.268;2024-03-07T08:05:25;98500.69;;;16.69
78369;BMP280;71113;43.092;-89.268;2024-03-07T08:07:56;98497.53;;;16.67
78369;BMP280;71113;43.092;-89.268;2024-03-07T08:10:27;98499.41;;;16.67
78369;BMP280;71113;43.092;-89.268;2024-03-07T08:12:57;98492.88;;;16.64
78369;BMP280;71113;43.092;-89.268;2024-03-07T08:15:25;98501.53;;;16.65
78369;BMP280;71113;43.092;-89.268;2024-03-07T08:17:51;98491.31;;;16.63
78369;BMP280;71113;43.092;-89.268;2024-03-07T08:20:19;98493.94;;;16.63
78369;BMP280;71113;43.092;-89.268;2024-03-07T08:22:49;98487.13;;;16.62
78369;BMP280;71113;43.092;-89.268;2024-03-07T08:25:24;98487.38;;;16.61
78369;BMP280;71113;43.092;-89.268;2024-03-07T08:27:52;98483.53;;;16.58
78369;BMP280;71113;43.092;-89.268;2024-03-07T08:30:18;98482.72;;;16.58
78369;BMP280;71113;43.092;-89.268;2024-03-07T08:32:49;98476.69;;;16.57
78369;BMP280;71113;43.092;-89.268;2024-03-07T08:35:16;98479.59;;;16.56
78369;BMP280;71113;43.092;-89.268;2024-03-07T08:37:43;98477.44;;;16.58
78369;BMP280;71113;43.092;-89.268;2024-03-07T08:40:11;98465.09;;;16.58
78369;BMP280;71113;43.092;-89.268;2024-03-07T08:42:48;98462.25;;;16.55
78369;BMP280;71113;43.092;-89.268;2024-03-07T08:45:17;98456.19;;;16.54
78369;BMP280;71113;43.092;-89.268;2024-03-07T08:47:51;98457.28;;;16.53
78369;BMP280;71113;43.092;-89.268;2024-03-07T08:50:18;98452.00;;;16.53
78369;BMP280;71113;43.092;-89.268;2024-03-07T08:52:45;98448.13;;;16.51
78369;BMP280;71113;43.092;-89.268;2024-03-07T08:55:15;98441.00;;;16.51
78369;BMP280;71113;43.092;-89.268;2024-03-07T08:57:44;98433.69;;;16.48
78369;BMP280;71113;43.092;-89.268;2024-03-07T09:00:12;98429.97;;;16.49
78369;BMP280;71113;43.092;-89.268;2024-03-07T09:02:52;98428.91;;;16.50
78369;BMP280;71113;43.092;-89.268;2024-03-07T09:05:19;98433.38;;;16.50
78369;BMP280;71113;43.092;-89.268;2024-03-07T09:07:46;98432.13;;;16.47
78369;BMP280;71113;43.092;-89.268;2024-03-07T09:10:13;98440.03;;;16.47
78369;BMP280;71113;43.092;-89.268;2024-03-07T09:12:41;98447.16;;;16.47
78369;BMP280;71113;43.092;-89.268;2024-03-07T09:15:08;98438.44;;;16.46
78369;BMP280;71113;43.092;-89.268;2024-03-07T09:17:38;98450.06;;;16.45
78369;BMP280;71113;43.092;-89.268;2024-03-07T09:20:05;98442.94;;;16.45
78369;BMP280;71113;43.092;-89.268;2024-03-07T09:22:32;98437.19;;;16.43
78369;BMP280;71113;43.092;-89.268;2024-03-07T09:24:58;98430.41;;;16.42
78369;BMP280;71113;43.092;-89.268;2024-03-07T09:27:24;98428.03;;;16.41
78369;BMP280;71113;43.092;-89.268;2024-03-07T09:29:51;98430.66;;;16.41
78369;BMP280;71113;43.092;-89.268;2024-03-07T09:32:17;98430.97;;;16.39
78369;BMP280;71113;43.092;-89.268;2024-03-07T09:34:43;98430.19;;;16.39
78369;BMP280;71113;43.092;-89.268;2024-03-07T09:37:09;98420.44;;;16.39
78369;BMP280;71113;43.092;-89.268;2024-03-07T09:39:36;98414.88;;;16.41
78369;BMP280;71113;43.092;-89.268;2024-03-07T09:42:02;98417.03;;;16.39
78369;BMP280;71113;43.092;-89.268;2024-03-07T09:44:28;98422.59;;;16.37
78369;BMP280;71113;43.092;-89.268;2024-03-07T09:46:55;98421.81;;;16.37
78369;BMP280;71113;43.092;-89.268;2024-03-07T09:49:24;98413.44;;;16.35
78369;BMP280;71113;43.092;-89.268;2024-03-07T09:51:52;98416.66;;;16.32
78369;BMP280;71113;43.092;-89.268;2024-03-07T09:54:23;98434.75;;;16.33
78369;BMP280;71113;43.092;-89.268;2024-03-07T09:56:53;98446.06;;;16.34
78369;BMP280;71113;43.092;-89.268;2024-03-07T09:59:20;98456.91;;;16.32
78369;BMP280;71113;43.092;-89.268;2024-03-07T10:01:54;98459.22;;;16.34
78369;BMP280;71113;43.092;-89.268;2024-03-07T10:04:51;98478.72;;;16.33
78369;BMP280;71113;43.092;-89.268;2024-03-07T10:07:19;98471.94;;;16.32
78369;BMP280;71113;43.092;-89.268;2024-03-07T10:09:45;98474.56;;;16.32
78369;BMP280;71113;43.092;-89.268;2024-03-07T10:12:11;98473.78;;;16.31
78369;BMP280;71113;43.092;-89.268;2024-03-07T10:14:56;98484.31;;;16.31
78369;BMP280;71113;43.092;-89.268;2024-03-07T10:17:25;98488.28;;;16.29
78369;BMP280;71113;43.092;-89.268;2024-03-07T10:19:51;98479.63;;;16.28
78369;BMP280;71113;43.092;-89.268;2024-03-07T10:22:19;98477.28;;;16.27
78369;BMP280;71113;43.092;-89.268;2024-03-07T10:24:52;98478.09;;;16.27
78369;BMP280;71113;43.092;-89.268;2024-03-07T10:27:22;98481.75;;;16.26
78369;BMP280;71113;43.092;-89.268;2024-03-07T10:29:51;98499.41;;;16.26
78369;BMP280;71113;43.092;-89.268;2024-03-07T10:32:21;98503.41;;;16.23
78369;BMP280;71113;43.092;-89.268;2024-03-07T10:34:50;98499.97;;;16.23
78369;BMP280;71113;43.092;-89.268;2024-03-07T10:37:16;98501.56;;;16.24
78369;BMP280;71113;43.092;-89.268;2024-03-07T10:39:46;98504.19;;;16.24
78369;BMP280;71113;43.092;-89.268;2024-03-07T10:42:17;98501.56;;;16.24
78369;BMP280;71113;43.092;-89.268;2024-03-07T10:44:45;98494.69;;;16.23
78369;BMP280;71113;43.092;-89.268;2024-03-07T10:47:20;98499.19;;;16.22
78369;BMP280;71113;43.092;-89.268;2024-03-07T10:50:04;98499.50;;;16.21
78369;BMP280;71113;43.092;-89.268;2024-03-07T10:55:33;98489.25;;;16.19
78369;BMP280;71113;43.092;-89.268;2024-03-07T10:58:24;98480.88;;;16.17
78369;BMP280;71113;43.092;-89.268;2024-03-07T11:00:56;98475.31;;;16.19
78369;BMP280;71113;43.092;-89.268;2024-03-07T11:03:24;98475.31;;;16.19
78369;BMP280;71113;43.092;-89.268;2024-03-07T11:05:50;98468.03;;;16.16
78369;BMP280;71113;43.092;-89.268;2024-03-07T11:08:18;98455.94;;;16.14
78369;BMP280;71113;43.092;-89.268;2024-03-07T11:10:45;98462.78;;;16.16
78369;BMP280;71113;43.092;-89.268;2024-03-07T11:13:14;98450.28;;;16.21
78369;BMP280;71113;43.092;-89.268;2024-03-07T11:15:44;98445.09;;;16.30
78369;BMP280;71113;43.092;-89.268;2024-03-07T11:18:10;98449.59;;;16.43
78369;BMP280;71113;43.092;-89.268;2024-03-07T11:20:39;98449.69;;;16.52
78369;BMP280;71113;43.092;-89.268;2024-03-07T11:23:24;98448.66;;;16.61
78369;BMP280;71113;43.092;-89.268;2024-03-07T11:26:08;98467.50;;;16.68
78369;BMP280;71113;43.092;-89.268;2024-03-07T11:28:42;98478.28;;;16.81
78369;BMP280;71113;43.092;-89.268;2024-03-07T11:31:14;98488.25;;;16.84
78369;BMP280;71113;43.092;-89.268;2024-03-07T11:33:41;98502.56;;;16.91
78369;BMP280;71113;43.092;-89.268;2024-03-07T11:36:09;98509.28;;;16.97
78369;BMP280;71113;43.092;-89.268;2024-03-07T11:38:48;98509.94;;;17.03
78369;BMP280;71113;43.092;-89.268;2024-03-07T11:41:14;98508.28;;;17.07
78369;BMP280;71113;43.092;-89.268;2024-03-07T11:43:40;98508.06;;;17.17
78369;BMP280;71113;43.092;-89.268;2024-03-07T11:46:08;98505.03;;;17.24
78369;BMP280;71113;43.092;-89.268;2024-03-07T11:48:42;98493.59;;;17.28
78369;BMP280;71113;43.092;-89.268;2024-03-07T11:51:12;98486.78;;;17.36
78369;BMP280;71113;43.092;-89.268;2024-03-07T11:53:39;98489.31;;;17.41
78369;BMP280;71113;43.092;-89.268;2024-03-07T11:56:05;98490.47;;;17.49
78369;BMP280;71113;43.092;-89.268;2024-03-07T11:58:43;98493.63;;;17.59
78369;BMP280;71113;43.092;-89.268;2024-03-07T12:01:10;98486.38;;;17.65
78369;BMP280;71113;43.092;-89.268;2024-03-07T12:03:39;98498.56;;;17.61
78369;BMP280;71113;43.092;-89.268;2024-03-07T12:06:07;98498.84;;;17.51
78369;BMP280;71113;43.092;-89.268;2024-03-07T12:08:35;98497.22;;;17.41
78369;BMP280;71113;43.092;-89.268;2024-03-07T12:11:01;98492.38;;;17.34
78369;BMP280;71113;43.092;-89.268;2024-03-07T12:13:28;98492.06;;;17.36
78369;BMP280;71113;43.092;-89.268;2024-03-07T12:15:54;98489.31;;;17.41
78369;BMP280;71113;43.092;-89.268;2024-03-07T12:18:21;98487.78;;;17.40
78369;BMP280;71113;43.092;-89.268;2024-03-07T12:20:48;98497.72;;;17.43
78369;BMP280;71113;43.092;-89.268;2024-03-07T12:23:22;98497.88;;;17.47
78369;BMP280;71113;43.092;-89.268;2024-03-07T12:26:01;98485.19;;;17.49
78369;BMP280;71113;43.092;-89.268;2024-03-07T12:28:28;98482.25;;;17.50
78369;BMP280;71113;43.092;-89.268;2024-03-07T12:30:58;98483.50;;;17.53
78369;BMP280;71113;43.092;-89.268;2024-03-07T12:33:29;98482.13;;;17.55
78369;BMP280;71113;43.092;-89.268;2024-03-07T12:35:56;98480.72;;;17.58
78369;BMP280;71113;43.092;-89.268;2024-03-07T12:38:31;98475.63;;;17.61
78369;BMP280;71113;43.092;-89.268;2024-03-07T12:41:08;98474.72;;;17.66
78369;BMP280;71113;43.092;-89.268;2024-03-07T12:43:40;98470.72;;;17.69
78369;BMP280;71113;43.092;-89.268;2024-03-07T12:46:11;98471.50;;;17.69
78369;BMP280;71113;43.092;-89.268;2024-03-07T12:48:38;98472.75;;;17.72
78369;BMP280;71113;43.092;-89.268;2024-03-07T12:51:04;98471.66;;;17.73
78369;BMP280;71113;43.092;-89.268;2024-03-07T12:53:31;98477.09;;;17.76
78369;BMP280;71113;43.092;-89.268;2024-03-07T12:55:57;98468.09;;;17.77
78369;BMP280;71113;43.092;-89.268;2024-03-07T12:58:23;98479.94;;;17.80
78369;BMP280;71113;43.092;-89.268;2024-03-07T13:00:52;98483.03;;;17.82
78369;BMP280;71113;43.092;-89.268;2024-03-07T13:03:18;98485.38;;;17.83
78369;BMP280;71113;43.092;-89.268;2024-03-07T13:05:44;98493.75;;;17.85
78369;BMP280;71113;43.092;-89.268;2024-03-07T13:08:10;98486.81;;;17.89
78369;BMP280;71113;43.092;-89.268;2024-03-07T13:10:41;98496.72;;;17.92
78369;BMP280;71113;43.092;-89.268;2024-03-07T13:13:07;98493.97;;;17.98
78369;BMP280;71113;43.092;-89.268;2024-03-07T13:15:37;98502.84;;;18.02
78369;BMP280;71113;43.092;-89.268;2024-03-07T13:18:04;98504.41;;;18.03
78369;BMP280;71113;43.092;-89.268;2024-03-07T13:20:31;98507.81;;;18.03
78369;BMP280;71113;43.092;-89.268;2024-03-07T13:22:57;98494.66;;;18.12
78369;BMP280;71113;43.092;-89.268;2024-03-07T13:25:26;98506.50;;;18.23
78369;BMP280;71113;43.092;-89.268;2024-03-07T13:28:06;98510.13;;;18.36
78369;BMP280;71113;43.092;-89.268;2024-03-07T13:30:51;98500.66;;;18.43
78369;BMP280;71113;43.092;-89.268;2024-03-07T13:33:20;98512.13;;;18.39
78369;BMP280;71113;43.092;-89.268;2024-03-07T13:35:46;98505.47;;;18.33
78369;BMP280;71113;43.092;-89.268;2024-03-07T13:38:12;98504.97;;;18.31
78369;BMP280;71113;43.092;-89.268;2024-03-07T13:40:39;98510.25;;;18.31
78369;BMP280;71113;43.092;-89.268;2024-03-07T13:43:06;98511.03;;;18.31
78369;BMP280;71113;43.092;-89.268;2024-03-07T13:45:36;98506.22;;;18.33
78369;BMP280;71113;43.092;-89.268;2024-03-07T13:48:07;98503.41;;;18.38
78369;BMP280;71113;43.092;-89.268;2024-03-07T13:50:34;98504.38;;;18.42
78369;BMP280;71113;43.092;-89.268;2024-03-07T13:53:01;98502.22;;;18.44
78369;BMP280;71113;43.092;-89.268;2024-03-07T13:58:11;98501.91;;;18.46